首页
METAR-TAF:

METAR-TAF

机场 :

West Bend Municipal Airport

西本德, 威斯康辛州, 美国

纬度: 43-25-20N, 经度: 088-07-41W, 海拔: 270米

当前天气观测

该预报发布于21分钟前的22:15 UTC
风速20节,风向西,有时为27节阵风
温度 5°C
湿度 87%
气压 1003 hPa
能見度: 11.3公里
多云层高于1300英尺
阴天层高于2000英尺

METAR: KETB 292215Z AUTO 27020G27KT 7SM BKN013 OVC020 05/03 A2963 RMK AO2

时间: 17:36 (22:36 UTC)


TAF: 丢失

超过4000个机场的气象观测和天气预报(METAR&TAF报告)。

可查询的气象台以黄色和红色小点在地图上表示。

将鼠标移到小点上方,可查看气象台名称。

然后点击查看天气观测和预报。

如需切换地图:点击带黑十字的绿色按钮放大地图;点击带横线的绿色按钮缩小地图;或者点击绿色箭头查看邻近地区的地图。


METAR-TAF: